Main page
METAR-TAF:

METAR-TAF

Airports :

Koror, Babelthuap Island, Palau

Roman Tmetuchl International Airport

latitude: 07-22N, longitude: 134-32E, elevation: 54 m

Current weather observation

The report was made 57 minutes ago, at 20:50 UTC
Calm wind
Temperature 25°C
Humidity 94%
Pressure 1010 hPa
Visibility: 22.5 km
Broken clouds at a height of 1600 ft, Cumulonimbus.
Broken clouds at a height of 12000 ft
Overcast at a height of 30000 ft

METAR: PTRO 282050Z 00000KT 14SM BKN016CB BKN120 OVC300 25/24 A2983 RMK CB VC ALQDS

Time: 06:47 (21:47 UTC)

Forecast

The report was made 4 hours and 15 minutes ago, at 17:32 UTC
Forecast valid from 28 at 18 UTC to 29 at 18 UTC
Wind 7 kt from the West
Visibility: 10 km
Scattered clouds at a height of 1600 ft
Broken clouds at a height of 12000 ft
showers in vicinity
Temporary
from 28 at 18 UTC to 28 at 21 UTC
Visibility: 6.4 km
Broken clouds at a height of 1600 ft
rain showers

TAF: PTRO 281732Z 2818/2918 26007KT P6SM VCSH SCT016 BKN120 TEMPO 2818/2821 4SM SHRA BKN016

Weather observations and forecasts of more than 4000 airports (METAR and TAF reports).

The available stations are represented by yellow and red dots on the map.

Hover mouse over dot to see the name of the station.

Then click to see weather observations and forecasts.

To change the map : click on the green buttons with a black cross to zoom in, on the green button with a dash to zoom out, or on the green arrows for adjacent maps.


METAR-TAF: